createdAt,value
2022-08-21T00:01:36.559Z,14.09
2022-08-21T00:04:07.887Z,14.07
2022-08-21T00:06:34.757Z,14.06
2022-08-21T00:09:06.320Z,14.07
2022-08-21T00:11:34.335Z,14.08
2022-08-21T00:14:00.756Z,14.02
2022-08-21T00:16:27.715Z,13.98
2022-08-21T00:18:54.302Z,13.93
2022-08-21T00:21:20.815Z,13.89
2022-08-21T00:23:47.326Z,13.86
2022-08-21T00:26:14.270Z,13.82
2022-08-21T00:28:40.795Z,13.88
2022-08-21T00:31:07.330Z,13.96
2022-08-21T00:33:34.709Z,13.96
2022-08-21T00:36:01.665Z,13.98
2022-08-21T00:38:28.081Z,13.93
2022-08-21T00:40:58.408Z,13.89
2022-08-21T00:43:34.276Z,13.82
2022-08-21T00:46:03.534Z,13.82
2022-08-21T00:48:29.965Z,13.82
2022-08-21T00:51:02.781Z,13.86
2022-08-21T00:53:31.514Z,13.93
2022-08-21T00:56:00.254Z,13.93
2022-08-21T00:58:28.938Z,13.87
2022-08-21T01:01:00.605Z,13.80
2022-08-21T01:03:27.121Z,13.73
2022-08-21T01:05:54.334Z,13.67
2022-08-21T01:08:22.753Z,13.63
2022-08-21T01:10:54.460Z,13.61
2022-08-21T01:13:25.477Z,13.60
2022-08-21T01:15:54.911Z,13.59
2022-08-21T01:18:21.724Z,13.55
2022-08-21T01:21:16.147Z,13.51
2022-08-21T01:23:45.268Z,13.45
2022-08-21T01:26:14.569Z,13.44
2022-08-21T01:28:54.966Z,13.44
2022-08-21T01:31:24.783Z,13.46
2022-08-21T01:33:53.355Z,13.45
2022-08-21T01:36:20.250Z,13.50
2022-08-21T01:38:48.206Z,13.52
2022-08-21T01:41:16.054Z,13.54
2022-08-21T01:43:44.246Z,13.46
2022-08-21T01:46:11.406Z,13.38
2022-08-21T01:48:38.455Z,13.36
2022-08-21T01:51:05.830Z,13.33
2022-08-21T01:53:34.897Z,13.36
2022-08-21T01:56:01.649Z,13.40
2022-08-21T01:58:28.205Z,13.39
2022-08-21T02:00:55.058Z,13.33
2022-08-21T02:03:26.432Z,13.36
2022-08-21T02:06:05.434Z,13.34
2022-08-21T02:08:32.649Z,13.33
2022-08-21T02:10:59.548Z,13.29
2022-08-21T02:13:25.967Z,13.20
2022-08-21T02:15:52.860Z,13.10
2022-08-21T02:18:19.342Z,13.07
2022-08-21T02:20:48.723Z,13.06
2022-08-21T02:23:27.178Z,13.01
2022-08-21T02:25:57.937Z,12.95
2022-08-21T02:28:24.567Z,12.89
2022-08-21T02:30:52.363Z,12.92
2022-08-21T02:33:19.590Z,12.99
2022-08-21T02:35:48.182Z,13.02
2022-08-21T02:38:18.601Z,12.99
2022-08-21T02:40:50.889Z,12.96
2022-08-21T02:43:18.736Z,13.00
2022-08-21T02:45:46.620Z,13.02
2022-08-21T02:48:17.290Z,13.00
2022-08-21T02:50:45.945Z,12.95
2022-08-21T02:53:17.325Z,12.91
2022-08-21T02:55:46.516Z,12.92
2022-08-21T02:58:13.756Z,12.93
2022-08-21T03:00:40.891Z,12.91
2022-08-21T03:03:07.675Z,12.90
2022-08-21T03:05:36.364Z,12.88
2022-08-21T03:08:04.408Z,12.92
2022-08-21T03:10:31.990Z,12.93
2022-08-21T03:12:58.560Z,12.86
2022-08-21T03:15:25.719Z,12.79
2022-08-21T03:17:55.382Z,12.76
2022-08-21T03:20:25.727Z,12.75
2022-08-21T03:22:53.769Z,12.75
2022-08-21T03:25:29.611Z,12.72
2022-08-21T03:28:13.010Z,12.65
2022-08-21T03:30:48.968Z,12.59
2022-08-21T03:33:15.805Z,12.58
2022-08-21T03:35:45.293Z,12.58
2022-08-21T03:38:13.799Z,12.59
2022-08-21T03:40:41.092Z,12.62
2022-08-21T03:43:09.944Z,12.65
2022-08-21T03:45:37.178Z,12.67
2022-08-21T03:48:05.095Z,12.68
2022-08-21T03:50:35.021Z,12.65
2022-08-21T03:53:07.336Z,12.64
2022-08-21T03:55:34.211Z,12.67
2022-08-21T03:58:00.779Z,12.69
2022-08-21T04:00:45.041Z,12.71
2022-08-21T04:03:11.535Z,12.78
2022-08-21T04:05:38.478Z,12.83
2022-08-21T04:08:06.522Z,12.83
2022-08-21T04:10:36.437Z,12.79
2022-08-21T04:13:03.657Z,12.78
2022-08-21T04:15:30.561Z,12.78
2022-08-21T04:17:57.147Z,12.75
2022-08-21T04:20:24.362Z,12.68
2022-08-21T04:22:51.679Z,12.63
2022-08-21T04:25:20.875Z,12.62
2022-08-21T04:27:48.099Z,12.60
2022-08-21T04:30:16.256Z,12.49
2022-08-21T04:32:45.476Z,12.45
2022-08-21T04:35:14.598Z,12.38
2022-08-21T04:37:42.084Z,12.27
2022-08-21T04:40:10.985Z,12.24
2022-08-21T04:42:45.424Z,12.23
2022-08-21T04:45:31.149Z,12.26
2022-08-21T04:47:59.985Z,12.30
2022-08-21T04:50:37.054Z,12.30
2022-08-21T04:53:06.163Z,12.29
2022-08-21T04:55:33.446Z,12.27
2022-08-21T04:58:00.561Z,12.29
2022-08-21T05:00:27.184Z,12.27
2022-08-21T05:02:57.408Z,12.32
2022-08-21T05:05:24.909Z,12.38
2022-08-21T05:07:54.095Z,12.41
2022-08-21T05:10:20.816Z,12.49
2022-08-21T05:12:47.445Z,12.55
2022-08-21T05:15:14.500Z,12.62
2022-08-21T05:17:42.508Z,12.68
2022-08-21T05:20:11.059Z,12.74
2022-08-21T05:22:37.896Z,12.80
2022-08-21T05:25:09.697Z,12.83
2022-08-21T05:27:39.063Z,12.89
2022-08-21T05:30:10.251Z,12.95
2022-08-21T05:32:37.319Z,12.99
2022-08-21T05:35:08.734Z,13.06
2022-08-21T05:37:35.417Z,13.14
2022-08-21T05:40:04.714Z,13.23
2022-08-21T05:42:54.230Z,13.30
2022-08-21T05:45:42.284Z,13.41
2022-08-21T05:48:13.697Z,13.59
2022-08-21T05:50:40.765Z,13.72
2022-08-21T05:53:08.083Z,13.85
2022-08-21T05:55:41.370Z,13.98
2022-08-21T05:58:11.697Z,14.12
2022-08-21T06:00:38.262Z,14.27
2022-08-21T06:03:05.423Z,14.37
2022-08-21T06:05:37.355Z,14.49
2022-08-21T06:08:04.757Z,14.62
2022-08-21T06:10:32.095Z,14.75
2022-08-21T06:12:58.665Z,14.89
2022-08-21T06:15:28.232Z,14.98
2022-08-21T06:17:55.607Z,15.11
2022-08-21T06:20:22.566Z,15.25
2022-08-21T06:22:49.178Z,15.37
2022-08-21T06:25:15.641Z,15.47
2022-08-21T06:27:42.407Z,15.60
2022-08-21T06:30:09.601Z,15.70
2022-08-21T06:32:36.610Z,15.84
2022-08-21T06:35:04.465Z,15.94
2022-08-21T06:37:31.030Z,16.04
2022-08-21T06:39:57.525Z,16.14
2022-08-21T06:42:29.068Z,16.23
2022-08-21T06:44:55.980Z,16.31
2022-08-21T06:47:22.910Z,16.39
2022-08-21T06:49:49.541Z,16.51
2022-08-21T06:52:16.566Z,16.61
2022-08-21T06:54:43.076Z,16.69
2022-08-21T06:57:09.977Z,16.79
2022-08-21T06:59:36.614Z,16.86
2022-08-21T07:02:03.717Z,16.93
2022-08-21T07:04:30.754Z,17.00
2022-08-21T07:06:57.493Z,17.08
2022-08-21T07:09:24.835Z,17.15
2022-08-21T07:11:54.448Z,17.23
2022-08-21T07:14:20.942Z,17.30
2022-08-21T07:16:48.619Z,17.38
2022-08-21T07:19:15.116Z,17.46
2022-08-21T07:21:41.638Z,17.56
2022-08-21T07:24:08.412Z,17.68
2022-08-21T07:26:35.803Z,17.77
2022-08-21T07:29:02.627Z,17.87
2022-08-21T07:31:29.226Z,17.96
2022-08-21T07:33:55.800Z,18.07
2022-08-21T07:36:22.434Z,18.17
2022-08-21T07:38:48.977Z,18.25
2022-08-21T07:41:22.367Z,18.36
2022-08-21T07:43:48.883Z,18.47
2022-08-21T07:46:19.776Z,18.58
2022-08-21T07:48:46.213Z,18.71
2022-08-21T07:51:16.179Z,18.80
2022-08-21T07:53:42.760Z,18.84
2022-08-21T07:56:09.815Z,18.87
2022-08-21T07:58:36.319Z,18.91
2022-08-21T08:01:03.229Z,18.98
2022-08-21T08:03:29.757Z,19.00
2022-08-21T08:05:57.606Z,19.01
2022-08-21T08:08:24.637Z,19.13
2022-08-21T08:10:51.334Z,19.21
2022-08-21T08:13:18.126Z,19.28
2022-08-21T08:15:44.725Z,19.45
2022-08-21T08:18:11.528Z,19.57
2022-08-21T08:20:38.046Z,19.69
2022-08-21T08:23:04.622Z,19.84
2022-08-21T08:25:32.766Z,19.98
2022-08-21T08:28:16.609Z,20.01
2022-08-21T08:30:44.563Z,20.14
2022-08-21T08:33:11.087Z,20.18
2022-08-21T08:35:39.048Z,20.35
2022-08-21T08:38:06.743Z,20.48
2022-08-21T08:40:52.379Z,20.58
2022-08-21T08:43:20.279Z,20.70
2022-08-21T08:45:51.189Z,20.75
2022-08-21T08:48:52.794Z,20.83
2022-08-21T08:51:27.192Z,20.86
2022-08-21T08:54:03.885Z,20.80
2022-08-21T08:56:33.450Z,20.68
2022-08-21T08:59:12.554Z,20.73
2022-08-21T09:01:39.855Z,21.01
2022-08-21T09:04:06.891Z,21.00
2022-08-21T09:06:56.079Z,21.00
2022-08-21T09:09:59.273Z,21.01
2022-08-21T09:12:38.870Z,21.14
2022-08-21T09:15:27.239Z,21.35
2022-08-21T09:18:15.749Z,21.59
2022-08-21T09:21:18.413Z,21.86
2022-08-21T09:23:51.378Z,22.11
2022-08-21T09:26:21.093Z,22.34
2022-08-21T09:28:54.185Z,22.54
2022-08-21T09:31:26.453Z,22.75
2022-08-21T09:34:00.810Z,22.83
2022-08-21T09:36:43.184Z,23.00
2022-08-21T09:39:12.346Z,23.25
2022-08-21T09:41:40.579Z,23.17
2022-08-21T09:44:09.243Z,23.02
2022-08-21T09:46:37.231Z,22.76
2022-08-21T09:49:06.814Z,22.72
2022-08-21T09:51:37.932Z,22.81
2022-08-21T09:54:07.342Z,22.71
2022-08-21T09:57:14.227Z,22.60
2022-08-21T09:59:41.572Z,22.43
2022-08-21T10:02:25.696Z,22.35
2022-08-21T10:04:55.192Z,22.18
2022-08-21T10:07:24.201Z,22.12
2022-08-21T10:10:09.181Z,22.22
2022-08-21T10:12:47.696Z,22.28
2022-08-21T10:15:23.833Z,22.65
2022-08-21T10:18:04.153Z,22.71
2022-08-21T10:20:42.520Z,22.58
2022-08-21T10:23:41.173Z,22.53
2022-08-21T10:26:48.864Z,22.92
2022-08-21T10:29:45.062Z,23.35
2022-08-21T10:32:31.451Z,23.54
2022-08-21T10:35:08.406Z,23.75
2022-08-21T10:37:49.385Z,24.03
2022-08-21T10:40:18.896Z,24.32
2022-08-21T10:43:00.372Z,24.51
2022-08-21T10:45:52.167Z,24.70
2022-08-21T10:48:29.940Z,24.50
2022-08-21T10:51:10.791Z,24.51
2022-08-21T10:53:48.338Z,24.51
2022-08-21T10:56:29.669Z,24.78
2022-08-21T10:59:33.254Z,25.03
2022-08-21T11:02:09.633Z,25.25
2022-08-21T11:04:57.993Z,25.38
2022-08-21T11:08:04.371Z,25.59
2022-08-21T11:10:40.816Z,25.87
2022-08-21T11:13:26.070Z,25.68
2022-08-21T11:16:25.017Z,25.89
2022-08-21T11:18:59.814Z,25.60
2022-08-21T11:21:33.768Z,25.46
2022-08-21T11:24:19.449Z,25.60
2022-08-21T11:26:57.934Z,25.82
2022-08-21T11:29:28.644Z,26.10
2022-08-21T11:32:19.741Z,26.43
2022-08-21T11:35:08.830Z,26.52
2022-08-21T11:37:53.840Z,26.41
2022-08-21T11:40:30.656Z,26.61
2022-08-21T11:43:21.356Z,26.48
2022-08-21T11:45:53.523Z,26.25
2022-08-21T11:48:44.923Z,26.47
2022-08-21T11:51:17.317Z,26.32
2022-08-21T11:54:11.033Z,26.20
2022-08-21T11:56:46.376Z,26.18
2022-08-21T11:59:21.756Z,26.11
2022-08-21T12:01:51.660Z,25.90
2022-08-21T12:04:33.384Z,25.66
2022-08-21T12:07:16.023Z,25.45
2022-08-21T12:09:52.301Z,25.19
2022-08-21T12:12:37.273Z,24.95
2022-08-21T12:15:14.465Z,24.82
2022-08-21T12:17:51.953Z,24.86
2022-08-21T12:20:21.806Z,24.92
2022-08-21T12:22:56.497Z,24.91
2022-08-21T12:25:23.381Z,24.83
2022-08-21T12:28:02.984Z,24.67
2022-08-21T12:30:29.417Z,24.76
2022-08-21T12:33:02.014Z,25.23
2022-08-21T12:35:43.280Z,25.66
2022-08-21T12:38:28.553Z,25.85
2022-08-21T12:41:04.723Z,25.69
2022-08-21T12:43:34.344Z,25.40
2022-08-21T12:46:07.584Z,25.54
2022-08-21T12:48:47.975Z,25.90
2022-08-21T12:51:30.076Z,26.35
2022-08-21T12:53:59.564Z,26.65
2022-08-21T12:56:30.588Z,26.60
2022-08-21T12:59:06.114Z,26.35
2022-08-21T13:01:47.051Z,26.27
2022-08-21T13:04:18.524Z,26.10
2022-08-21T13:06:50.344Z,25.83
2022-08-21T13:09:20.861Z,25.72
2022-08-21T13:11:49.891Z,25.66
2022-08-21T13:14:29.620Z,25.64
2022-08-21T13:16:59.943Z,25.39
2022-08-21T13:19:28.126Z,25.39
2022-08-21T13:21:54.708Z,25.44
2022-08-21T13:24:43.623Z,25.35
2022-08-21T13:27:28.850Z,25.38
2022-08-21T13:30:06.349Z,25.36
2022-08-21T13:32:38.693Z,25.30
2022-08-21T13:35:20.185Z,25.21
2022-08-21T13:37:51.073Z,25.30
2022-08-21T13:40:27.698Z,25.24
2022-08-21T13:42:55.825Z,25.26
2022-08-21T13:45:31.883Z,25.41
2022-08-21T13:48:00.596Z,25.23
2022-08-21T13:50:36.028Z,25.19
2022-08-21T13:53:08.652Z,25.18
2022-08-21T13:55:44.163Z,25.14
2022-08-21T13:58:12.304Z,25.09
2022-08-21T14:00:50.717Z,25.00
2022-08-21T14:03:42.529Z,25.11
2022-08-21T14:06:15.094Z,25.18
2022-08-21T14:08:42.309Z,25.32
2022-08-21T14:11:13.523Z,25.57
2022-08-21T14:13:44.531Z,25.55
2022-08-21T14:16:28.829Z,25.43
2022-08-21T14:19:03.755Z,25.28
2022-08-21T14:21:39.713Z,25.17
2022-08-21T14:24:08.155Z,25.01
2022-08-21T14:26:49.410Z,24.81
2022-08-21T14:29:17.958Z,24.72
2022-08-21T14:31:50.985Z,24.76
2022-08-21T14:34:19.718Z,24.68
2022-08-21T14:36:47.896Z,24.56
2022-08-21T14:39:14.442Z,24.51
2022-08-21T14:41:41.081Z,24.55
2022-08-21T14:44:09.569Z,24.58
2022-08-21T14:46:47.302Z,24.58
2022-08-21T14:49:28.615Z,24.49
2022-08-21T14:51:58.506Z,24.41
2022-08-21T14:54:31.580Z,24.36
2022-08-21T14:57:02.343Z,24.38
2022-08-21T14:59:29.023Z,24.47
2022-08-21T15:01:57.097Z,24.44
2022-08-21T15:04:23.649Z,24.36
2022-08-21T15:06:55.065Z,24.17
2022-08-21T15:09:21.988Z,24.22
2022-08-21T15:11:48.827Z,24.32
2022-08-21T15:14:24.739Z,24.35
2022-08-21T15:16:51.718Z,24.34
2022-08-21T15:19:18.231Z,24.32
2022-08-21T15:21:44.670Z,24.34
2022-08-21T15:24:11.240Z,24.25
2022-08-21T15:26:38.105Z,24.19
2022-08-21T15:29:07.240Z,24.23
2022-08-21T15:31:34.862Z,24.22
2022-08-21T15:34:01.543Z,24.27
2022-08-21T15:36:28.016Z,24.31
2022-08-21T15:38:54.484Z,24.28
2022-08-21T15:41:21.134Z,24.25
2022-08-21T15:43:51.367Z,24.27
2022-08-21T15:46:20.353Z,24.06
2022-08-21T15:48:47.860Z,24.03
2022-08-21T15:51:17.959Z,24.03
2022-08-21T15:53:46.010Z,24.00
2022-08-21T15:56:22.775Z,24.03
2022-08-21T15:58:51.339Z,24.11
2022-08-21T16:01:18.901Z,24.03
2022-08-21T16:03:49.048Z,24.07
2022-08-21T16:06:15.790Z,24.07
2022-08-21T16:08:42.481Z,24.13
2022-08-21T16:11:08.935Z,24.17
2022-08-21T16:13:39.873Z,24.15
2022-08-21T16:16:06.921Z,24.26
2022-08-21T16:18:33.458Z,24.17
2022-08-21T16:21:00.009Z,24.17
2022-08-21T16:23:26.473Z,24.06
2022-08-21T16:25:53.403Z,24.12
2022-08-21T16:28:21.258Z,24.08
2022-08-21T16:30:50.891Z,24.13
2022-08-21T16:33:35.415Z,24.17
2022-08-21T16:36:04.986Z,24.32
2022-08-21T16:38:32.606Z,24.42
2022-08-21T16:41:01.667Z,24.51
2022-08-21T16:43:30.238Z,24.49
2022-08-21T16:45:58.459Z,24.36
2022-08-21T16:48:25.279Z,24.32
2022-08-21T16:50:51.916Z,24.29
2022-08-21T16:53:18.328Z,24.21
2022-08-21T16:55:46.082Z,24.20
2022-08-21T16:58:20.949Z,24.28
2022-08-21T17:00:47.516Z,24.10
2022-08-21T17:03:17.026Z,23.94
2022-08-21T17:05:44.618Z,23.91
2022-08-21T17:08:11.071Z,23.82
2022-08-21T17:10:37.689Z,23.77
2022-08-21T17:13:09.736Z,23.75
2022-08-21T17:15:39.539Z,23.70
2022-08-21T17:18:10.543Z,23.63
2022-08-21T17:20:37.809Z,23.58
2022-08-21T17:23:04.534Z,23.54
2022-08-21T17:25:31.402Z,23.40
2022-08-21T17:27:58.255Z,23.35
2022-08-21T17:30:24.913Z,23.33
2022-08-21T17:32:54.723Z,23.24
2022-08-21T17:35:21.757Z,23.10
2022-08-21T17:37:48.616Z,22.96
2022-08-21T17:40:15.528Z,22.91
2022-08-21T17:42:44.614Z,22.86
2022-08-21T17:45:14.227Z,22.79
2022-08-21T17:47:41.981Z,22.74
2022-08-21T17:50:10.277Z,22.68
2022-08-21T17:52:37.023Z,22.67
2022-08-21T17:55:04.970Z,22.62
2022-08-21T17:57:35.339Z,22.56
2022-08-21T18:00:02.166Z,22.59
2022-08-21T18:02:30.512Z,22.54
2022-08-21T18:04:57.130Z,22.50
2022-08-21T18:07:31.888Z,22.44
2022-08-21T18:09:59.897Z,22.36
2022-08-21T18:12:26.575Z,22.32
2022-08-21T18:14:53.125Z,22.23
2022-08-21T18:17:23.741Z,22.16
2022-08-21T18:19:50.618Z,22.07
2022-08-21T18:22:17.035Z,22.04
2022-08-21T18:24:44.288Z,22.03
2022-08-21T18:27:13.394Z,21.98
2022-08-21T18:29:47.519Z,21.93
2022-08-21T18:32:31.284Z,21.86
2022-08-21T18:35:01.698Z,21.81
2022-08-21T18:37:29.330Z,21.76
2022-08-21T18:39:56.281Z,21.66
2022-08-21T18:42:28.678Z,21.63
2022-08-21T18:45:01.436Z,21.61
2022-08-21T18:47:33.636Z,21.54
2022-08-21T18:50:00.154Z,21.46
2022-08-21T18:52:28.484Z,21.30
2022-08-21T18:54:55.256Z,21.24
2022-08-21T18:57:27.942Z,21.17
2022-08-21T19:00:00.161Z,21.01
2022-08-21T19:02:27.463Z,20.94
2022-08-21T19:04:54.253Z,20.87
2022-08-21T19:07:21.743Z,20.76
2022-08-21T19:10:07.601Z,20.71
2022-08-21T19:12:36.298Z,20.70
2022-08-21T19:15:05.405Z,20.68
2022-08-21T19:17:33.686Z,20.64
2022-08-21T19:20:06.424Z,20.62
2022-08-21T19:22:32.937Z,20.49
2022-08-21T19:24:59.400Z,20.33
2022-08-21T19:27:26.811Z,20.21
2022-08-21T19:29:53.671Z,20.16
2022-08-21T19:32:20.305Z,20.07
2022-08-21T19:34:49.814Z,20.05
2022-08-21T19:37:19.603Z,20.02
2022-08-21T19:39:50.104Z,19.91
2022-08-21T19:42:34.605Z,19.87
2022-08-21T19:45:02.554Z,19.76
2022-08-21T19:47:31.398Z,19.70
2022-08-21T19:50:01.390Z,19.72
2022-08-21T19:52:32.365Z,19.65
2022-08-21T19:55:02.376Z,19.60
2022-08-21T19:57:29.130Z,19.53
2022-08-21T19:59:58.513Z,19.44
2022-08-21T20:02:25.228Z,19.36
2022-08-21T20:04:54.065Z,19.41
2022-08-21T20:07:26.627Z,19.34
2022-08-21T20:09:53.999Z,19.26
2022-08-21T20:12:20.585Z,19.24
2022-08-21T20:14:47.842Z,19.25
2022-08-21T20:17:17.832Z,19.25
2022-08-21T20:19:46.118Z,19.19
2022-08-21T20:22:14.963Z,19.07
2022-08-21T20:24:42.203Z,18.93
2022-08-21T20:27:13.704Z,18.82
2022-08-21T20:29:40.183Z,18.78
2022-08-21T20:32:12.017Z,18.80
2022-08-21T20:34:39.823Z,18.79
2022-08-21T20:37:06.253Z,18.75
2022-08-21T20:39:35.911Z,18.68
2022-08-21T20:42:04.589Z,18.63
2022-08-21T20:44:34.366Z,18.64
2022-08-21T20:47:08.791Z,18.66
2022-08-21T20:49:44.380Z,18.63
2022-08-21T20:52:13.549Z,18.55
2022-08-21T20:54:52.742Z,18.45
2022-08-21T20:57:29.665Z,18.42
2022-08-21T21:00:04.454Z,18.39
2022-08-21T21:02:46.177Z,18.35
2022-08-21T21:05:17.698Z,18.30
2022-08-21T21:08:00.374Z,18.29
2022-08-21T21:10:41.616Z,18.26
2022-08-21T21:13:20.205Z,18.22
2022-08-21T21:15:50.487Z,18.19
2022-08-21T21:18:26.496Z,18.14
2022-08-21T21:21:06.912Z,18.15
2022-08-21T21:23:50.594Z,18.09
2022-08-21T21:26:35.441Z,17.98
2022-08-21T21:29:13.200Z,17.93
2022-08-21T21:31:41.424Z,18.01
2022-08-21T21:34:07.993Z,18.01
2022-08-21T21:37:03.767Z,18.01
2022-08-21T21:39:53.901Z,17.97
2022-08-21T21:42:56.671Z,17.90
2022-08-21T21:45:28.379Z,17.84
2022-08-21T21:48:05.909Z,17.77
2022-08-21T21:51:01.906Z,17.74
2022-08-21T21:54:04.069Z,17.69
2022-08-21T21:56:45.837Z,17.76
2022-08-21T21:59:30.981Z,17.74
2022-08-21T22:02:07.790Z,17.76
2022-08-21T22:05:07.790Z,17.79
2022-08-21T22:07:47.421Z,17.77
2022-08-21T22:10:42.915Z,17.70
2022-08-21T22:13:27.880Z,17.70
2022-08-21T22:15:56.288Z,17.69
2022-08-21T22:18:32.707Z,17.70
2022-08-21T22:21:16.798Z,17.68
2022-08-21T22:23:48.589Z,17.70
2022-08-21T22:26:42.244Z,17.73
2022-08-21T22:29:16.656Z,17.70
2022-08-21T22:31:59.741Z,17.67
2022-08-21T22:34:28.696Z,17.67
2022-08-21T22:36:59.428Z,17.64
2022-08-21T22:39:39.405Z,17.63
2022-08-21T22:42:13.626Z,17.66
2022-08-21T22:44:50.989Z,17.70
2022-08-21T22:47:51.517Z,17.69
2022-08-21T22:50:30.830Z,17.69
2022-08-21T22:53:03.611Z,17.65
2022-08-21T22:55:43.636Z,17.62
2022-08-21T22:58:18.669Z,17.67
2022-08-21T23:00:57.316Z,17.66
2022-08-21T23:03:44.859Z,17.65
2022-08-21T23:06:32.086Z,17.65
2022-08-21T23:09:00.269Z,17.65
2022-08-21T23:11:42.732Z,17.62
2022-08-21T23:14:14.136Z,17.60
2022-08-21T23:16:59.458Z,17.65
2022-08-21T23:20:13.582Z,17.66
2022-08-21T23:23:21.233Z,17.65
2022-08-21T23:25:50.298Z,17.66
2022-08-21T23:28:38.567Z,17.64
2022-08-21T23:31:26.800Z,17.66
2022-08-21T23:34:15.883Z,17.63
2022-08-21T23:37:23.561Z,17.64
2022-08-21T23:40:08.439Z,17.60
2022-08-21T23:43:00.016Z,17.62
2022-08-21T23:45:40.874Z,17.61
2022-08-21T23:48:33.559Z,17.64
2022-08-21T23:51:07.443Z,17.62
2022-08-21T23:53:37.363Z,17.67
2022-08-21T23:56:40.243Z,17.69
2022-08-21T23:59:48.256Z,17.66
